Time;durP1;ratioP1;P1;durP2;ratioP2;P2;SDS_P1;SDS_P2;PMS_P1;PMS_P2;Temp;Humidity;BMP_temperature;BMP_pressure;BME280_temperature;BME280_humidity;BME280_pressure;Samples;Min_cycle;Max_cycle;Signal;HPM_P1;HPM_P2
2022/10/07 00:01:16;;;;;;;22.75;4.93;;;;;;;;;;4996673;28;89891;-64
2022/10/07 00:03:43;;;;;;;17.17;4.07;;;;;;;;;;4999962;28;89445;-64
2022/10/07 00:06:09;;;;;;;17.00;4.28;;;;;;;;;;4990899;28;88039;-64
2022/10/07 00:08:36;;;;;;;15.52;3.85;;;;;;;;;;4996884;28;90339;-64
2022/10/07 00:11:04;;;;;;;18.30;4.28;;;;;;;;;;4996305;28;88287;-65
2022/10/07 00:13:30;;;;;;;21.67;5.10;;;;;;;;;;4995546;28;89590;-65
2022/10/07 00:16:03;;;;;;;23.75;4.55;;;;;;;;;;4995355;28;89394;-65
2022/10/07 00:18:30;;;;;;;21.30;5.18;;;;;;;;;;4995982;28;90756;-66
2022/10/07 00:20:56;;;;;;;28.48;4.53;;;;;;;;;;4982134;28;87916;-65
2022/10/07 00:23:22;;;;;;;16.55;4.72;;;;;;;;;;4996054;28;88838;-65
2022/10/07 00:25:48;;;;;;;18.60;5.38;;;;;;;;;;4996015;28;88987;-66
2022/10/07 00:28:15;;;;;;;19.45;4.32;;;;;;;;;;4998887;28;88728;-66
2022/10/07 00:30:41;;;;;;;20.65;4.50;;;;;;;;;;4996140;28;89104;-66
2022/10/07 00:33:08;;;;;;;23.17;4.50;;;;;;;;;;4994533;28;88011;-65
2022/10/07 00:35:34;;;;;;;10.90;3.85;;;;;;;;;;4991678;28;87804;-66
2022/10/07 00:38:01;;;;;;;13.25;4.53;;;;;;;;;;4983730;28;88913;-66
2022/10/07 00:40:27;;;;;;;26.20;5.75;;;;;;;;;;4996916;28;88965;-66
2022/10/07 00:42:53;;;;;;;25.15;4.68;;;;;;;;;;4998842;28;89299;-65
2022/10/07 00:45:20;;;;;;;21.85;4.53;;;;;;;;;;4992056;28;88137;-65
2022/10/07 00:47:48;;;;;;;20.27;4.88;;;;;;;;;;4995784;28;88752;-65
2022/10/07 00:50:23;;;;;;;16.98;4.82;;;;;;;;;;4997625;28;89028;-66
2022/10/07 00:52:54;;;;;;;21.95;5.35;;;;;;;;;;4996425;28;88904;-66
2022/10/07 00:55:23;;;;;;;21.17;4.18;;;;;;;;;;4997254;28;88682;-66
2022/10/07 00:57:51;;;;;;;11.55;4.55;;;;;;;;;;4994669;28;90157;-66
2022/10/07 01:00:20;;;;;;;16.35;4.82;;;;;;;;;;4992332;28;87851;-66
2022/10/07 01:02:47;;;;;;;22.05;4.70;;;;;;;;;;4993635;28;88114;-65
2022/10/07 01:05:13;;;;;;;21.40;5.45;;;;;;;;;;5000328;28;89217;-66
2022/10/07 01:07:40;;;;;;;30.98;5.68;;;;;;;;;;4998701;28;89906;-65
2022/10/07 01:10:08;;;;;;;14.13;4.97;;;;;;;;;;5000067;28;89295;-66
2022/10/07 01:13:01;;;;;;;14.57;4.85;;;;;;;;;;4999926;28;88924;-66
2022/10/07 01:15:27;;;;;;;26.45;5.63;;;;;;;;;;4994918;28;88763;-66
2022/10/07 01:18:03;;;;;;;25.23;5.00;;;;;;;;;;4999132;28;90072;-65
2022/10/07 01:20:44;;;;;;;29.65;4.80;;;;;;;;;;4998921;28;89656;-65
2022/10/07 01:23:28;;;;;;;27.40;5.70;;;;;;;;;;5001314;28;89658;-66
2022/10/07 01:26:06;;;;;;;30.25;5.50;;;;;;;;;;5003310;28;88247;-66
2022/10/07 01:28:36;;;;;;;26.77;5.35;;;;;;;;;;4998401;28;89177;-66
2022/10/07 01:31:04;;;;;;;25.67;5.40;;;;;;;;;;4997087;28;88682;-66
2022/10/07 01:33:32;;;;;;;25.13;4.80;;;;;;;;;;4989758;28;89171;-66
2022/10/07 01:36:03;;;;;;;26.30;5.20;;;;;;;;;;4996262;28;88187;-66
2022/10/07 01:38:31;;;;;;;20.50;5.32;;;;;;;;;;4997079;28;89003;-66
2022/10/07 01:41:03;;;;;;;21.50;4.90;;;;;;;;;;5005760;28;89146;-66
2022/10/07 01:43:30;;;;;;;18.48;4.93;;;;;;;;;;4997809;28;88994;-66
2022/10/07 01:45:56;;;;;;;23.55;5.85;;;;;;;;;;4997200;28;90091;-66
2022/10/07 01:48:22;;;;;;;22.17;5.65;;;;;;;;;;5000491;28;89562;-66
2022/10/07 01:50:50;;;;;;;18.10;4.90;;;;;;;;;;4999697;28;89337;-65
2022/10/07 01:53:46;;;;;;;21.75;5.75;;;;;;;;;;4998512;28;88041;-66
2022/10/07 01:56:12;;;;;;;21.67;5.00;;;;;;;;;;4998878;28;88248;-67
2022/10/07 01:58:38;;;;;;;21.65;4.45;;;;;;;;;;4999121;28;90775;-66
2022/10/07 02:01:23;;;;;;;21.35;5.50;;;;;;;;;;4993371;28;88138;-66
2022/10/07 02:03:55;;;;;;;24.50;5.55;;;;;;;;;;4997566;28;90305;-66
2022/10/07 02:06:34;;;;;;;33.17;5.85;;;;;;;;;;4998468;28;90860;-66
2022/10/07 02:09:03;;;;;;;21.05;5.25;;;;;;;;;;4995136;28;88907;-66
2022/10/07 02:11:32;;;;;;;18.92;6.30;;;;;;;;;;5001574;28;89308;-65
2022/10/07 02:13:59;;;;;;;21.10;5.78;;;;;;;;;;4994365;28;88944;-65
2022/10/07 02:17:04;;;;;;;22.45;5.32;;;;;;;;;;4999501;28;88893;-66
2022/10/07 02:19:33;;;;;;;20.67;5.35;;;;;;;;;;4946202;28;89025;-66
2022/10/07 02:22:01;;;;;;;30.20;6.10;;;;;;;;;;4957333;28;89336;-66
2022/10/07 02:24:29;;;;;;;23.08;5.13;;;;;;;;;;4955892;28;89796;-65
2022/10/07 02:26:57;;;;;;;32.80;6.22;;;;;;;;;;4955497;28;88951;-65
2022/10/07 02:29:24;;;;;;;21.35;5.53;;;;;;;;;;4955750;28;89413;-65
2022/10/07 02:31:51;;;;;;;26.75;6.75;;;;;;;;;;4955337;28;88742;-66
2022/10/07 02:34:18;;;;;;;18.70;4.93;;;;;;;;;;4954549;28;90206;-65
2022/10/07 02:36:51;;;;;;;34.00;6.88;;;;;;;;;;4954900;28;88728;-66
2022/10/07 02:39:18;;;;;;;31.17;5.47;;;;;;;;;;4955565;28;90504;-66
2022/10/07 02:41:53;;;;;;;26.77;6.68;;;;;;;;;;4958010;28;88939;-66
2022/10/07 02:44:35;;;;;;;29.42;6.18;;;;;;;;;;4955613;28;89084;-67
2022/10/07 02:47:04;;;;;;;35.55;6.10;;;;;;;;;;4955820;28;90055;-66
2022/10/07 02:49:35;;;;;;;25.00;5.63;;;;;;;;;;4961131;28;88953;-66
2022/10/07 02:52:04;;;;;;;38.35;6.65;;;;;;;;;;4998689;28;89409;-65
2022/10/07 02:54:33;;;;;;;33.42;6.78;;;;;;;;;;4997739;28;88996;-65
2022/10/07 02:57:00;;;;;;;26.92;5.78;;;;;;;;;;5000572;28;88833;-65
2022/10/07 02:59:27;;;;;;;22.52;6.28;;;;;;;;;;4998632;28;88938;-65
2022/10/07 03:01:55;;;;;;;29.30;6.70;;;;;;;;;;4998168;28;88902;-66
2022/10/07 03:04:22;;;;;;;36.40;6.47;;;;;;;;;;4987514;28;89285;-65
2022/10/07 03:06:48;;;;;;;36.20;6.32;;;;;;;;;;4998147;28;89346;-67
2022/10/07 03:09:15;;;;;;;26.67;6.18;;;;;;;;;;4997493;28;88201;-66
2022/10/07 03:11:41;;;;;;;38.38;7.18;;;;;;;;;;4998173;28;89311;-66
2022/10/07 03:14:08;;;;;;;24.88;5.97;;;;;;;;;;4997119;28;91182;-65
2022/10/07 03:16:35;;;;;;;27.00;6.53;;;;;;;;;;5000462;28;88112;-66
2022/10/07 03:19:01;;;;;;;23.85;5.47;;;;;;;;;;5000448;28;89162;-65
2022/10/07 03:21:27;;;;;;;28.25;5.88;;;;;;;;;;4997157;28;90079;-66
2022/10/07 03:23:54;;;;;;;26.15;5.45;;;;;;;;;;4998657;28;89795;-66
2022/10/07 03:26:20;;;;;;;27.30;5.95;;;;;;;;;;4997147;28;90344;-66
2022/10/07 03:28:47;;;;;;;25.77;6.25;;;;;;;;;;4991633;28;88927;-66
2022/10/07 03:31:14;;;;;;;30.35;6.50;;;;;;;;;;4998470;28;88797;-65
2022/10/07 03:33:40;;;;;;;22.13;5.70;;;;;;;;;;4996406;28;88955;-66
2022/10/07 03:36:07;;;;;;;36.78;6.38;;;;;;;;;;4995101;28;88329;-66
2022/10/07 03:38:34;;;;;;;31.98;6.18;;;;;;;;;;4998933;28;89211;-65
2022/10/07 03:41:02;;;;;;;23.33;5.97;;;;;;;;;;4997438;28;88916;-66
2022/10/07 03:43:29;;;;;;;23.83;5.38;;;;;;;;;;4996565;28;88863;-65
2022/10/07 03:45:57;;;;;;;31.00;5.72;;;;;;;;;;4998560;28;89031;-65
2022/10/07 03:48:23;;;;;;;22.80;6.43;;;;;;;;;;4993007;28;89652;-66
2022/10/07 03:50:50;;;;;;;20.70;5.93;;;;;;;;;;4997307;28;89897;-66
2022/10/07 03:53:17;;;;;;;27.75;6.50;;;;;;;;;;4983872;28;87965;-65
2022/10/07 03:55:44;;;;;;;20.73;5.43;;;;;;;;;;4998129;28;87928;-65
2022/10/07 03:58:11;;;;;;;33.28;5.45;;;;;;;;;;4996183;28;89398;-66
2022/10/07 04:00:38;;;;;;;18.23;5.38;;;;;;;;;;4999532;28;89155;-66
2022/10/07 04:03:05;;;;;;;20.98;5.45;;;;;;;;;;4995198;28;88941;-65
2022/10/07 04:05:32;;;;;;;25.33;6.55;;;;;;;;;;4995701;28;88065;-66
2022/10/07 04:07:58;;;;;;;31.75;6.57;;;;;;;;;;4998476;28;88990;-66
2022/10/07 04:10:25;;;;;;;31.10;5.95;;;;;;;;;;4997625;28;88810;-66
2022/10/07 04:12:51;;;;;;;24.92;5.65;;;;;;;;;;5004509;28;88767;-65
2022/10/07 04:15:17;;;;;;;24.13;5.10;;;;;;;;;;4996418;28;87925;-66
2022/10/07 04:17:45;;;;;;;27.73;5.47;;;;;;;;;;4996160;28;88798;-66
2022/10/07 04:20:13;;;;;;;20.17;5.20;;;;;;;;;;4997838;28;88418;-66
2022/10/07 04:22:39;;;;;;;13.82;5.00;;;;;;;;;;4999417;28;87976;-66
2022/10/07 04:27:54;;;;;;;18.98;5.10;;;;;;;;;;4988010;28;88779;-66
2022/10/07 04:30:21;;;;;;;20.40;5.75;;;;;;;;;;4991020;28;91040;-67
2022/10/07 04:32:49;;;;;;;25.33;5.38;;;;;;;;;;4995644;28;89026;-68
2022/10/07 04:35:19;;;;;;;25.27;5.32;;;;;;;;;;4989855;28;88919;-65
2022/10/07 04:37:48;;;;;;;23.87;5.97;;;;;;;;;;4995044;28;88759;-66
2022/10/07 04:40:15;;;;;;;23.13;5.63;;;;;;;;;;4996423;28;90370;-66
2022/10/07 04:45:26;;;;;;;20.83;4.85;;;;;;;;;;4992986;28;87914;-66
2022/10/07 04:47:52;;;;;;;30.05;6.53;;;;;;;;;;4996328;28;88020;-66
2022/10/07 04:50:18;;;;;;;27.40;5.20;;;;;;;;;;4984866;28;88583;-65
2022/10/07 04:52:45;;;;;;;21.35;5.97;;;;;;;;;;4996215;28;89747;-66
2022/10/07 04:55:12;;;;;;;27.98;5.82;;;;;;;;;;4995710;28;88804;-66
2022/10/07 04:57:38;;;;;;;36.20;6.13;;;;;;;;;;4996677;28;88693;-65
2022/10/07 05:00:05;;;;;;;31.23;7.07;;;;;;;;;;4995808;28;89023;-65
2022/10/07 05:02:31;;;;;;;27.10;5.53;;;;;;;;;;4992808;28;89326;-66
2022/10/07 05:04:58;;;;;;;23.27;5.07;;;;;;;;;;4994014;28;88858;-66
2022/10/07 05:07:25;;;;;;;28.25;5.00;;;;;;;;;;4997641;28;90106;-66
2022/10/07 05:09:51;;;;;;;19.25;4.32;;;;;;;;;;4997547;28;88827;-66
2022/10/07 05:12:18;;;;;;;29.00;4.97;;;;;;;;;;4996448;28;90021;-66
2022/10/07 05:14:44;;;;;;;33.30;5.25;;;;;;;;;;4996936;28;88872;-66
2022/10/07 05:17:12;;;;;;;18.27;4.10;;;;;;;;;;4996636;28;89903;-65
2022/10/07 05:19:38;;;;;;;28.15;4.75;;;;;;;;;;4997157;28;89000;-65
2022/10/07 05:22:05;;;;;;;27.48;4.78;;;;;;;;;;4996354;28;88425;-66
2022/10/07 05:24:31;;;;;;;41.75;6.45;;;;;;;;;;4996253;28;89896;-66
2022/10/07 05:26:57;;;;;;;21.70;4.35;;;;;;;;;;4995753;28;89179;-66
2022/10/07 05:29:24;;;;;;;21.67;4.45;;;;;;;;;;4999400;28;87920;-66
2022/10/07 05:31:50;;;;;;;22.27;4.70;;;;;;;;;;4996474;28;88976;-66
2022/10/07 05:34:16;;;;;;;21.35;4.95;;;;;;;;;;4996281;28;87379;-66
2022/10/07 05:36:42;;;;;;;17.17;4.28;;;;;;;;;;4994364;28;88071;-65
2022/10/07 05:39:09;;;;;;;22.75;4.88;;;;;;;;;;4995693;28;90437;-66
2022/10/07 05:41:36;;;;;;;21.08;4.47;;;;;;;;;;4994506;28;89503;-65
2022/10/07 05:44:11;;;;;;;20.27;4.20;;;;;;;;;;4985414;28;90928;-65
2022/10/07 05:46:38;;;;;;;18.80;4.40;;;;;;;;;;5000919;28;89951;-66
2022/10/07 05:49:04;;;;;;;22.70;5.65;;;;;;;;;;5006474;28;88013;-66
2022/10/07 05:51:30;;;;;;;24.67;4.90;;;;;;;;;;4996290;28;90166;-66
2022/10/07 05:53:57;;;;;;;28.00;5.25;;;;;;;;;;5000402;28;88363;-66
2022/10/07 05:56:23;;;;;;;31.00;5.45;;;;;;;;;;4998700;28;88827;-66
2022/10/07 05:58:51;;;;;;;34.05;6.88;;;;;;;;;;4990844;28;89332;-66
2022/10/07 06:01:18;;;;;;;26.17;6.07;;;;;;;;;;4984183;28;88340;-66
2022/10/07 06:03:49;;;;;;;23.60;5.45;;;;;;;;;;4995855;28;89147;-66
2022/10/07 06:06:16;;;;;;;30.45;5.57;;;;;;;;;;4997278;28;89688;-66
2022/10/07 06:08:42;;;;;;;18.88;4.88;;;;;;;;;;4999061;28;88652;-66
2022/10/07 06:13:55;;;;;;;21.23;4.25;;;;;;;;;;4998301;28;88880;-66
2022/10/07 06:16:22;;;;;;;19.08;5.07;;;;;;;;;;4997390;28;90202;-67
2022/10/07 06:18:51;;;;;;;34.17;5.38;;;;;;;;;;4996884;28;89095;-66
2022/10/07 06:21:18;;;;;;;23.05;4.85;;;;;;;;;;4998053;28;89012;-66
2022/10/07 06:23:50;;;;;;;22.40;4.32;;;;;;;;;;5000508;28;90241;-67
2022/10/07 06:26:16;;;;;;;25.63;3.85;;;;;;;;;;4999140;28;90043;-67
2022/10/07 06:28:42;;;;;;;24.85;5.05;;;;;;;;;;4996089;28;88835;-67
2022/10/07 06:31:10;;;;;;;20.05;4.03;;;;;;;;;;4992736;28;89173;-66
2022/10/07 06:33:37;;;;;;;47.20;5.97;;;;;;;;;;5002782;28;88603;-67
2022/10/07 06:36:04;;;;;;;33.22;5.97;;;;;;;;;;4995557;28;88791;-66
2022/10/07 06:38:30;;;;;;;22.33;4.75;;;;;;;;;;4995104;28;89028;-66
2022/10/07 06:41:00;;;;;;;15.57;4.20;;;;;;;;;;4999130;28;88910;-66
2022/10/07 06:43:27;;;;;;;17.53;3.50;;;;;;;;;;4997481;28;89030;-67
2022/10/07 06:46:03;;;;;;;16.10;3.83;;;;;;;;;;4999464;28;89003;-67
2022/10/07 06:48:31;;;;;;;28.02;4.43;;;;;;;;;;4999014;28;89131;-66
2022/10/07 06:50:58;;;;;;;24.50;3.83;;;;;;;;;;4998950;28;89096;-67
2022/10/07 06:53:25;;;;;;;20.23;3.67;;;;;;;;;;4998494;28;88990;-67
2022/10/07 06:55:56;;;;;;;25.10;4.20;;;;;;;;;;5000057;28;89053;-67
2022/10/07 06:58:23;;;;;;;29.80;4.45;;;;;;;;;;4998678;28;90095;-67
2022/10/07 07:00:49;;;;;;;22.92;4.15;;;;;;;;;;4999209;28;88868;-66
2022/10/07 07:03:16;;;;;;;19.83;3.67;;;;;;;;;;4998070;28;89400;-67
2022/10/07 07:05:43;;;;;;;23.50;4.80;;;;;;;;;;4993762;28;89863;-67
2022/10/07 07:08:15;;;;;;;22.95;3.20;;;;;;;;;;4996161;28;88799;-67
2022/10/07 07:10:42;;;;;;;33.97;4.65;;;;;;;;;;4996792;28;89957;-66
2022/10/07 07:13:09;;;;;;;21.83;4.28;;;;;;;;;;4997897;28;88653;-66
2022/10/07 07:15:36;;;;;;;34.60;4.40;;;;;;;;;;4997994;28;88058;-66
2022/10/07 07:18:03;;;;;;;25.13;4.15;;;;;;;;;;4992462;28;89574;-67
2022/10/07 07:20:34;;;;;;;31.55;4.97;;;;;;;;;;4995178;28;90538;-66
2022/10/07 07:23:01;;;;;;;25.92;3.38;;;;;;;;;;4998582;28;90542;-66
2022/10/07 07:25:27;;;;;;;28.05;4.63;;;;;;;;;;5001862;28;88909;-67
2022/10/07 07:27:55;;;;;;;22.63;4.35;;;;;;;;;;5004201;28;89650;-66
2022/10/07 07:30:23;;;;;;;14.10;3.47;;;;;;;;;;4997512;28;89424;-67
2022/10/07 07:32:50;;;;;;;23.40;3.83;;;;;;;;;;4996612;28;90052;-67
2022/10/07 07:35:16;;;;;;;23.98;3.10;;;;;;;;;;5001221;28;88476;-66
2022/10/07 07:37:42;;;;;;;19.88;4.05;;;;;;;;;;4991644;28;88861;-67
2022/10/07 07:40:09;;;;;;;26.10;3.97;;;;;;;;;;4998161;28;88209;-67
2022/10/07 07:42:36;;;;;;;22.40;3.92;;;;;;;;;;4996144;28;88702;-67
2022/10/07 07:45:02;;;;;;;16.75;3.58;;;;;;;;;;4997285;28;89722;-66
2022/10/07 07:47:29;;;;;;;26.33;4.57;;;;;;;;;;4996266;28;89100;-66
2022/10/07 07:49:55;;;;;;;26.40;4.20;;;;;;;;;;4997824;28;88031;-66
2022/10/07 07:52:24;;;;;;;20.13;4.07;;;;;;;;;;4997529;28;89045;-67
2022/10/07 07:54:51;;;;;;;16.58;3.70;;;;;;;;;;4997967;28;88916;-67
2022/10/07 07:57:18;;;;;;;19.98;3.78;;;;;;;;;;4997177;28;89808;-67
2022/10/07 07:59:44;;;;;;;20.35;3.60;;;;;;;;;;4999868;28;90024;-67
2022/10/07 08:02:11;;;;;;;27.48;4.57;;;;;;;;;;4997342;28;88908;-67
2022/10/07 08:04:37;;;;;;;25.25;4.38;;;;;;;;;;5001199;28;88965;-67
2022/10/07 08:07:03;;;;;;;20.85;4.30;;;;;;;;;;4996451;28;89033;-66
2022/10/07 08:09:30;;;;;;;27.05;4.45;;;;;;;;;;4995470;28;89943;-66
2022/10/07 08:11:57;;;;;;;20.30;4.85;;;;;;;;;;4996188;28;89516;-67
2022/10/07 08:14:23;;;;;;;23.52;4.30;;;;;;;;;;4996805;28;89128;-67
2022/10/07 08:16:50;;;;;;;21.70;4.43;;;;;;;;;;4997399;28;89169;-66
2022/10/07 08:19:16;;;;;;;22.05;3.97;;;;;;;;;;4996710;28;89060;-66
2022/10/07 08:21:43;;;;;;;24.08;4.05;;;;;;;;;;4999663;28;88068;-66
2022/10/07 08:24:10;;;;;;;21.77;3.97;;;;;;;;;;4998093;28;88960;-67
2022/10/07 08:26:37;;;;;;;27.10;4.25;;;;;;;;;;4997601;28;87808;-66
2022/10/07 08:29:03;;;;;;;16.58;3.85;;;;;;;;;;4996332;28;89107;-66
2022/10/07 08:31:30;;;;;;;17.50;4.28;;;;;;;;;;4998507;28;90028;-66
2022/10/07 08:33:57;;;;;;;20.88;4.32;;;;;;;;;;4995100;28;89006;-67
2022/10/07 08:36:25;;;;;;;24.85;4.82;;;;;;;;;;4995545;28;88623;-67
2022/10/07 08:38:51;;;;;;;18.25;5.13;;;;;;;;;;4997231;28;90451;-67
2022/10/07 08:41:32;;;;;;;24.13;4.20;;;;;;;;;;4995729;28;88110;-67
2022/10/07 08:44:06;;;;;;;26.30;4.80;;;;;;;;;;4998552;28;89886;-69
2022/10/07 08:46:34;;;;;;;16.98;4.07;;;;;;;;;;4991763;28;88141;-68
2022/10/07 08:49:05;;;;;;;20.40;4.40;;;;;;;;;;4993831;28;89886;-68
2022/10/07 08:51:38;;;;;;;26.08;4.75;;;;;;;;;;4998675;28;88296;-67
2022/10/07 08:54:04;;;;;;;30.98;4.90;;;;;;;;;;4987099;28;88956;-68
2022/10/07 08:56:32;;;;;;;17.60;4.25;;;;;;;;;;4992749;28;88181;-67
2022/10/07 08:59:08;;;;;;;20.52;4.57;;;;;;;;;;4995104;28;90118;-68
2022/10/07 09:01:53;;;;;;;24.38;4.60;;;;;;;;;;4991460;28;88047;-67
2022/10/07 09:04:38;;;;;;;18.23;5.05;;;;;;;;;;4996936;28;88830;-67
2022/10/07 09:07:16;;;;;;;29.08;5.45;;;;;;;;;;4999058;28;88995;-67
2022/10/07 09:09:52;;;;;;;27.63;5.22;;;;;;;;;;4995545;28;88768;-67
2022/10/07 09:12:21;;;;;;;25.17;5.20;;;;;;;;;;4997015;28;89056;-67
2022/10/07 09:14:50;;;;;;;28.48;4.40;;;;;;;;;;4995231;28;88318;-67
2022/10/07 09:17:21;;;;;;;39.45;5.55;;;;;;;;;;4997458;28;88920;-67
2022/10/07 09:19:51;;;;;;;20.33;3.67;;;;;;;;;;4996080;28;90137;-67
2022/10/07 09:22:20;;;;;;;24.50;5.15;;;;;;;;;;4993321;28;88912;-67
2022/10/07 09:24:48;;;;;;;26.38;5.15;;;;;;;;;;4995468;28;88810;-66
2022/10/07 09:27:15;;;;;;;27.02;4.22;;;;;;;;;;4999330;28;88059;-67
2022/10/07 09:29:42;;;;;;;21.92;4.40;;;;;;;;;;5001705;28;88166;-67
2022/10/07 09:32:10;;;;;;;23.50;3.92;;;;;;;;;;4998582;28;89021;-67
2022/10/07 09:34:37;;;;;;;14.82;4.13;;;;;;;;;;4997533;28;89928;-68
2022/10/07 09:37:23;;;;;;;16.15;4.15;;;;;;;;;;4999944;28;89886;-67
2022/10/07 09:39:51;;;;;;;24.63;4.55;;;;;;;;;;4998551;28;89324;-67
2022/10/07 09:42:20;;;;;;;13.23;3.90;;;;;;;;;;5000396;28;88646;-67
2022/10/07 09:44:57;;;;;;;26.35;5.30;;;;;;;;;;5015667;28;90024;-71
2022/10/07 09:47:25;;;;;;;22.88;4.30;;;;;;;;;;4983877;28;88988;-73
2022/10/07 09:49:55;;;;;;;29.83;4.28;;;;;;;;;;4998324;28;88878;-73
2022/10/07 09:52:22;;;;;;;;;;;;;;;;;;4998599;28;89352;-73
2022/10/07 09:54:50;;;;;;;18.75;3.13;;;;;;;;;;4997749;28;118472;-72
2022/10/07 09:57:28;;;;;;;15.80;3.78;;;;;;;;;;4997460;28;88880;-71
2022/10/07 10:00:15;;;;;;;27.05;4.53;;;;;;;;;;4998747;28;89412;-72
2022/10/07 10:02:45;;;;;;;22.65;4.10;;;;;;;;;;5002127;28;88914;-72
2022/10/07 10:05:41;;;;;;;21.23;3.88;;;;;;;;;;4997224;28;88726;-73
2022/10/07 10:08:13;;;;;;;37.58;4.65;;;;;;;;;;4989945;28;88310;-73
2022/10/07 10:10:47;;;;;;;18.98;3.80;;;;;;;;;;4998389;28;89588;-72
2022/10/07 10:13:23;;;;;;;14.18;3.15;;;;;;;;;;5002225;28;88765;-72
2022/10/07 10:15:49;;;;;;;23.05;4.07;;;;;;;;;;4997055;28;88822;-73
2022/10/07 10:18:34;;;;;;;19.77;3.63;;;;;;;;;;4999503;28;89673;-72
2022/10/07 10:21:15;;;;;;;21.05;3.85;;;;;;;;;;4998440;28;89075;-74
2022/10/07 10:23:44;;;;;;;23.33;3.92;;;;;;;;;;5001994;28;88191;-73
2022/10/07 10:26:26;;;;;;;19.27;3.55;;;;;;;;;;4997954;28;88845;-68
2022/10/07 10:29:10;;;;;;;21.00;4.00;;;;;;;;;;4989804;28;89886;-70
2022/10/07 10:31:52;;;;;;;20.83;4.10;;;;;;;;;;4980146;28;88045;-68
2022/10/07 10:34:30;;;;;;;17.55;3.45;;;;;;;;;;4982178;28;90371;-70
2022/10/07 10:37:17;;;;;;;21.38;4.38;;;;;;;;;;5001199;28;90008;-70
2022/10/07 10:39:46;;;;;;;14.50;3.95;;;;;;;;;;4998773;28;89839;-69
2022/10/07 10:42:14;;;;;;;27.53;3.23;;;;;;;;;;4996340;28;89759;-70
2022/10/07 10:44:43;;;;;;;24.75;4.45;;;;;;;;;;4997836;28;88126;-70
2022/10/07 10:47:19;;;;;;;16.85;3.88;;;;;;;;;;4998856;28;89711;-71
2022/10/07 10:50:04;;;;;;;15.63;4.13;;;;;;;;;;4999371;28;89523;-72
2022/10/07 10:52:48;;;;;;;16.17;3.13;;;;;;;;;;4997244;28;88125;-72
2022/10/07 10:55:33;;;;;;;17.42;3.60;;;;;;;;;;4998738;28;88881;-71
2022/10/07 10:58:05;;;;;;;20.48;3.65;;;;;;;;;;4998373;28;89039;-72
2022/10/07 11:00:52;;;;;;;20.08;3.60;;;;;;;;;;5002837;28;87300;-69
2022/10/07 11:03:32;;;;;;;25.40;3.25;;;;;;;;;;4986653;28;89021;-70
2022/10/07 11:06:02;;;;;;;22.73;4.38;;;;;;;;;;5007985;28;88208;-68
2022/10/07 11:08:31;;;;;;;18.20;3.80;;;;;;;;;;4978272;28;89790;-68
2022/10/07 11:11:11;;;;;;;19.92;4.05;;;;;;;;;;4979192;28;89888;-68
2022/10/07 11:13:56;;;;;;;17.27;3.92;;;;;;;;;;4982305;28;88130;-69
2022/10/07 11:16:43;;;;;;;21.88;3.65;;;;;;;;;;4992953;28;88933;-71
2022/10/07 11:19:19;;;;;;;21.05;3.92;;;;;;;;;;5000836;28;89082;-68
2022/10/07 11:21:48;;;;;;;14.25;3.35;;;;;;;;;;4990791;28;88107;-69
2022/10/07 11:24:31;;;;;;;17.48;3.55;;;;;;;;;;4997740;28;89862;-72
2022/10/07 11:27:00;;;;;;;17.58;2.60;;;;;;;;;;4984389;28;89057;-70
2022/10/07 11:29:42;;;;;;;17.30;3.50;;;;;;;;;;4995214;28;88253;-66
2022/10/07 11:32:29;;;;;;;22.13;3.70;;;;;;;;;;4994053;28;90132;-68
2022/10/07 11:35:19;;;;;;;15.80;3.17;;;;;;;;;;5000008;28;88815;-69
2022/10/07 11:38:03;;;;;;;26.92;3.92;;;;;;;;;;4996768;28;89826;-70
2022/10/07 11:40:32;;;;;;;17.90;3.58;;;;;;;;;;4995530;28;90003;-69
2022/10/07 11:43:05;;;;;;;12.23;2.47;;;;;;;;;;4985683;28;88113;-70
2022/10/07 11:45:38;;;;;;;17.85;2.70;;;;;;;;;;4994764;28;89109;-70
2022/10/07 14:55:06;;;;;;;19.23;3.63;;;;;;;;;;5038487;28;87236;-71
2022/10/07 14:57:33;;;;;;;15.95;3.53;;;;;;;;;;5015348;27;87015;-71
2022/10/07 14:59:59;;;;;;;14.27;2.67;;;;;;;;;;5013143;28;87536;-72
2022/10/07 15:02:26;;;;;;;13.85;3.05;;;;;;;;;;5015786;28;87446;-72
2022/10/07 15:04:52;;;;;;;31.83;2.97;;;;;;;;;;5013965;28;89243;-72
2022/10/07 15:07:20;;;;;;;17.33;3.38;;;;;;;;;;5024437;28;86921;-73
2022/10/07 15:09:46;;;;;;;11.68;3.63;;;;;;;;;;5035484;27;87456;-73
2022/10/07 15:12:14;;;;;;;16.50;4.00;;;;;;;;;;5031760;27;87200;-72
2022/10/07 15:14:40;;;;;;;14.52;3.67;;;;;;;;;;5036512;27;87193;-72
2022/10/07 15:17:07;;;;;;;11.98;3.85;;;;;;;;;;5032158;27;87763;-72
2022/10/07 15:19:34;;;;;;;27.02;3.75;;;;;;;;;;5030099;27;88371;-72
2022/10/07 15:22:00;;;;;;;19.75;7.15;;;;;;;;;;5033547;27;87236;-72
2022/10/07 15:24:29;;;;;;;20.58;7.13;;;;;;;;;;5016817;27;89196;-71
2022/10/07 15:26:55;;;;;;;24.25;5.80;;;;;;;;;;5033058;28;86967;-71
2022/10/07 15:29:21;;;;;;;15.52;4.40;;;;;;;;;;5035056;27;87819;-72
2022/10/07 15:31:48;;;;;;;19.42;3.40;;;;;;;;;;5032687;28;87695;-71
2022/10/07 15:34:14;;;;;;;18.63;3.72;;;;;;;;;;5032782;27;87434;-72
2022/10/07 15:36:41;;;;;;;15.80;3.47;;;;;;;;;;5034360;27;87500;-72
2022/10/07 15:39:08;;;;;;;14.77;3.72;;;;;;;;;;5034537;27;87303;-70
2022/10/07 15:41:38;;;;;;;16.52;3.30;;;;;;;;;;5023437;27;91712;-70
2022/10/07 15:44:04;;;;;;;;;;;;;;;;;;5022247;28;88879;-71
2022/10/07 15:46:31;;;;;;;16.30;4.18;;;;;;;;;;5027852;27;117190;-69
2022/10/07 15:48:58;;;;;;;23.17;4.70;;;;;;;;;;5034567;27;87684;-71
2022/10/07 15:51:25;;;;;;;21.88;5.38;;;;;;;;;;5027087;27;87822;-72
2022/10/07 15:53:52;;;;;;;18.88;4.88;;;;;;;;;;5018411;28;87622;-71
2022/10/07 15:56:18;;;;;;;14.88;5.13;;;;;;;;;;5026839;28;88259;-70
2022/10/07 15:58:44;;;;;;;16.95;4.97;;;;;;;;;;5036351;28;87911;-71
2022/10/07 16:01:11;;;;;;;45.28;5.63;;;;;;;;;;5034749;27;87413;-70
2022/10/07 16:03:39;;;;;;;26.08;10.52;;;;;;;;;;5028811;27;87656;-71
2022/10/07 16:06:11;;;;;;;17.95;4.75;;;;;;;;;;5001588;28;89894;-71
2022/10/07 16:08:38;;;;;;;19.80;4.78;;;;;;;;;;5020852;28;87473;-72
2022/10/07 16:11:06;;;;;;;17.60;4.78;;;;;;;;;;5018579;28;91326;-73
2022/10/07 16:13:36;;;;;;;11.85;4.00;;;;;;;;;;4998796;28;87459;-73
2022/10/07 16:16:15;;;;;;;11.98;3.17;;;;;;;;;;5013682;28;88572;-73
2022/10/07 16:18:42;;;;;;;20.42;3.83;;;;;;;;;;5018612;28;88065;-72
2022/10/07 16:21:13;;;;;;;12.45;3.65;;;;;;;;;;5007637;28;88184;-72
2022/10/07 16:23:40;;;;;;;17.55;3.15;;;;;;;;;;5006581;28;87908;-72
2022/10/07 16:26:08;;;;;;;21.77;3.60;;;;;;;;;;5003523;28;87372;-72
2022/10/07 16:31:22;;;;;;;15.35;3.42;;;;;;;;;;5021380;28;88936;-72
2022/10/07 16:33:50;;;;;;;21.77;3.53;;;;;;;;;;5004227;28;88431;-72
2022/10/07 16:36:17;;;;;;;11.85;3.30;;;;;;;;;;5000901;28;87530;-72
2022/10/07 16:38:43;;;;;;;9.48;2.67;;;;;;;;;;4999541;28;88848;-71
2022/10/07 16:41:09;;;;;;;21.25;3.83;;;;;;;;;;5000918;28;87313;-71
2022/10/07 16:43:35;;;;;;;16.77;4.63;;;;;;;;;;5007890;28;87812;-72
2022/10/07 16:46:03;;;;;;;15.90;4.32;;;;;;;;;;5020339;28;87677;-71
2022/10/07 16:48:39;;;;;;;16.30;3.78;;;;;;;;;;5008044;28;87469;-71
2022/10/07 16:51:24;;;;;;;12.82;3.63;;;;;;;;;;5005009;28;87854;-72
2022/10/07 16:53:55;;;;;;;18.42;3.63;;;;;;;;;;5019546;28;87353;-72
2022/10/07 16:56:21;;;;;;;13.55;3.15;;;;;;;;;;5011184;28;87874;-72
2022/10/07 16:58:53;;;;;;;16.58;3.30;;;;;;;;;;5012525;28;87868;-72
2022/10/07 17:01:20;;;;;;;15.18;3.35;;;;;;;;;;5014992;28;87379;-71
2022/10/07 17:03:48;;;;;;;14.15;3.13;;;;;;;;;;5010962;28;88032;-71
2022/10/07 17:06:15;;;;;;;9.73;2.80;;;;;;;;;;5022949;28;87021;-71
2022/10/07 17:08:41;;;;;;;15.45;4.57;;;;;;;;;;5016767;28;87344;-71
2022/10/07 17:11:36;;;;;;;18.65;4.32;;;;;;;;;;5001139;28;87535;-71
2022/10/07 17:14:07;;;;;;;17.92;5.90;;;;;;;;;;4999816;28;87095;-71
2022/10/07 17:16:35;;;;;;;16.92;7.05;;;;;;;;;;5015309;28;86901;-73
2022/10/07 17:19:02;;;;;;;17.50;4.57;;;;;;;;;;5017214;28;87838;-72
2022/10/07 17:21:28;;;;;;;21.33;4.60;;;;;;;;;;5010258;28;87358;-70
2022/10/07 17:23:57;;;;;;;15.93;3.92;;;;;;;;;;5000966;28;89774;-74
2022/10/07 17:26:25;;;;;;;14.05;3.67;;;;;;;;;;5016830;28;87890;-71
2022/10/07 17:28:55;;;;;;;25.30;4.68;;;;;;;;;;5013430;28;88929;-73
2022/10/07 17:31:22;;;;;;;13.85;3.20;;;;;;;;;;5019949;28;88253;-72
2022/10/07 17:33:48;;;;;;;19.55;4.22;;;;;;;;;;5020001;28;88065;-72
2022/10/07 17:36:14;;;;;;;15.95;4.07;;;;;;;;;;5019511;28;87482;-72
2022/10/07 17:38:42;;;;;;;13.98;3.78;;;;;;;;;;4998109;28;87819;-72
2022/10/07 17:41:14;;;;;;;15.98;3.30;;;;;;;;;;4997727;28;86863;-72
2022/10/07 17:43:40;;;;;;;22.73;5.20;;;;;;;;;;5003118;28;87945;-73
2022/10/07 17:46:09;;;;;;;16.70;5.28;;;;;;;;;;5002773;28;87650;-71
2022/10/07 17:48:45;;;;;;;16.80;6.03;;;;;;;;;;5020154;28;89117;-72
2022/10/07 17:51:12;;;;;;;17.67;5.55;;;;;;;;;;5019573;28;88989;-71
2022/10/07 17:53:41;;;;;;;16.05;5.72;;;;;;;;;;5015482;28;87295;-73
2022/10/07 17:56:09;;;;;;;16.35;5.20;;;;;;;;;;4999934;28;86725;-74
2022/10/07 17:58:39;;;;;;;19.08;5.57;;;;;;;;;;5002975;28;87894;-70
2022/10/07 18:01:11;;;;;;;17.08;5.18;;;;;;;;;;5004711;28;90086;-72
2022/10/07 18:03:39;;;;;;;11.98;4.97;;;;;;;;;;5003811;28;87167;-72